sensor_id;sensor_type;location;lat;lon;timestamp;P1;durP1;ratioP1;P2;durP2;ratioP2
59486;SDS011;45298;54.918;73.504;2022-11-20T00:01:37;26.45;;;7.65;;
59486;SDS011;45298;54.918;73.504;2022-11-20T00:04:07;20.48;;;6.55;;
59486;SDS011;45298;54.918;73.504;2022-11-20T00:06:38;21.95;;;7.57;;
59486;SDS011;45298;54.918;73.504;2022-11-20T00:09:09;22.67;;;6.75;;
59486;SDS011;45298;54.918;73.504;2022-11-20T00:11:38;18.15;;;6.43;;
59486;SDS011;45298;54.918;73.504;2022-11-20T00:14:08;29.00;;;8.50;;
59486;SDS011;45298;54.918;73.504;2022-11-20T00:16:38;20.73;;;7.13;;
59486;SDS011;45298;54.918;73.504;2022-11-20T00:19:06;21.85;;;7.28;;
59486;SDS011;45298;54.918;73.504;2022-11-20T00:21:35;26.67;;;8.65;;
59486;SDS011;45298;54.918;73.504;2022-11-20T00:24:04;30.27;;;8.45;;
59486;SDS011;45298;54.918;73.504;2022-11-20T00:26:33;35.42;;;11.77;;
59486;SDS011;45298;54.918;73.504;2022-11-20T00:29:02;30.05;;;10.02;;
59486;SDS011;45298;54.918;73.504;2022-11-20T00:31:31;32.20;;;10.85;;
59486;SDS011;45298;54.918;73.504;2022-11-20T00:34:01;30.90;;;9.45;;
59486;SDS011;45298;54.918;73.504;2022-11-20T00:36:32;32.55;;;9.45;;
59486;SDS011;45298;54.918;73.504;2022-11-20T00:39:02;24.98;;;8.77;;
59486;SDS011;45298;54.918;73.504;2022-11-20T00:41:31;22.67;;;8.07;;
59486;SDS011;45298;54.918;73.504;2022-11-20T00:43:59;30.30;;;8.85;;
59486;SDS011;45298;54.918;73.504;2022-11-20T00:46:28;26.92;;;8.52;;
59486;SDS011;45298;54.918;73.504;2022-11-20T00:48:57;26.63;;;8.70;;
59486;SDS011;45298;54.918;73.504;2022-11-20T00:51:27;25.08;;;7.85;;
59486;SDS011;45298;54.918;73.504;2022-11-20T00:53:57;24.98;;;9.20;;
59486;SDS011;45298;54.918;73.504;2022-11-20T00:56:28;36.05;;;11.35;;
59486;SDS011;45298;54.918;73.504;2022-11-20T00:58:58;40.35;;;12.90;;
59486;SDS011;45298;54.918;73.504;2022-11-20T01:01:28;32.20;;;10.00;;
59486;SDS011;45298;54.918;73.504;2022-11-20T01:03:59;34.55;;;9.38;;
59486;SDS011;45298;54.918;73.504;2022-11-20T01:06:32;27.52;;;9.00;;
59486;SDS011;45298;54.918;73.504;2022-11-20T01:09:05;27.08;;;9.73;;
59486;SDS011;45298;54.918;73.504;2022-11-20T01:11:37;37.05;;;10.88;;
59486;SDS011;45298;54.918;73.504;2022-11-20T01:14:16;30.73;;;8.88;;
59486;SDS011;45298;54.918;73.504;2022-11-20T01:16:47;30.85;;;10.43;;
59486;SDS011;45298;54.918;73.504;2022-11-20T01:19:18;27.75;;;9.38;;
59486;SDS011;45298;54.918;73.504;2022-11-20T01:21:50;25.70;;;9.68;;
59486;SDS011;45298;54.918;73.504;2022-11-20T01:24:21;26.23;;;10.23;;
59486;SDS011;45298;54.918;73.504;2022-11-20T01:26:50;22.20;;;7.93;;
59486;SDS011;45298;54.918;73.504;2022-11-20T01:29:21;36.63;;;10.27;;
59486;SDS011;45298;54.918;73.504;2022-11-20T01:31:51;40.95;;;11.60;;
59486;SDS011;45298;54.918;73.504;2022-11-20T01:34:21;34.97;;;11.60;;
59486;SDS011;45298;54.918;73.504;2022-11-20T01:36:51;46.83;;;15.40;;
59486;SDS011;45298;54.918;73.504;2022-11-20T01:39:22;31.73;;;10.77;;
59486;SDS011;45298;54.918;73.504;2022-11-20T01:41:55;36.88;;;11.05;;
59486;SDS011;45298;54.918;73.504;2022-11-20T01:45:00;39.25;;;10.77;;
59486;SDS011;45298;54.918;73.504;2022-11-20T01:47:39;33.75;;;10.32;;
59486;SDS011;45298;54.918;73.504;2022-11-20T01:52:54;30.25;;;9.38;;
59486;SDS011;45298;54.918;73.504;2022-11-20T01:55:30;29.08;;;9.18;;
59486;SDS011;45298;54.918;73.504;2022-11-20T01:58:01;24.20;;;8.48;;
59486;SDS011;45298;54.918;73.504;2022-11-20T02:00:31;26.95;;;8.05;;
59486;SDS011;45298;54.918;73.504;2022-11-20T02:03:01;27.75;;;8.07;;
59486;SDS011;45298;54.918;73.504;2022-11-20T02:05:36;23.23;;;7.68;;
59486;SDS011;45298;54.918;73.504;2022-11-20T02:08:14;17.63;;;7.07;;
59486;SDS011;45298;54.918;73.504;2022-11-20T02:10:44;18.33;;;6.00;;
59486;SDS011;45298;54.918;73.504;2022-11-20T02:13:12;21.88;;;7.20;;
59486;SDS011;45298;54.918;73.504;2022-11-20T02:16:00;21.63;;;7.50;;
59486;SDS011;45298;54.918;73.504;2022-11-20T02:18:30;21.02;;;7.10;;
59486;SDS011;45298;54.918;73.504;2022-11-20T02:21:01;22.90;;;7.53;;
59486;SDS011;45298;54.918;73.504;2022-11-20T02:26:33;25.42;;;9.77;;
59486;SDS011;45298;54.918;73.504;2022-11-20T02:29:07;25.20;;;8.10;;
59486;SDS011;45298;54.918;73.504;2022-11-20T02:31:40;22.45;;;6.35;;
59486;SDS011;45298;54.918;73.504;2022-11-20T02:34:10;23.92;;;7.55;;
59486;SDS011;45298;54.918;73.504;2022-11-20T02:36:39;30.70;;;8.80;;
59486;SDS011;45298;54.918;73.504;2022-11-20T02:39:11;33.47;;;8.07;;
59486;SDS011;45298;54.918;73.504;2022-11-20T02:41:45;27.02;;;8.63;;
59486;SDS011;45298;54.918;73.504;2022-11-20T02:44:14;26.35;;;9.55;;
59486;SDS011;45298;54.918;73.504;2022-11-20T02:46:43;29.13;;;9.85;;
59486;SDS011;45298;54.918;73.504;2022-11-20T02:49:12;28.05;;;8.65;;
59486;SDS011;45298;54.918;73.504;2022-11-20T02:51:40;33.13;;;8.70;;
59486;SDS011;45298;54.918;73.504;2022-11-20T02:54:09;23.77;;;8.40;;
59486;SDS011;45298;54.918;73.504;2022-11-20T02:56:38;17.67;;;7.03;;
59486;SDS011;45298;54.918;73.504;2022-11-20T02:59:07;19.70;;;7.72;;
59486;SDS011;45298;54.918;73.504;2022-11-20T03:01:36;24.67;;;6.90;;
59486;SDS011;45298;54.918;73.504;2022-11-20T03:04:05;24.83;;;7.93;;
59486;SDS011;45298;54.918;73.504;2022-11-20T03:06:34;32.25;;;9.52;;
59486;SDS011;45298;54.918;73.504;2022-11-20T03:09:03;22.63;;;7.55;;
59486;SDS011;45298;54.918;73.504;2022-11-20T03:11:34;33.10;;;8.70;;
59486;SDS011;45298;54.918;73.504;2022-11-20T03:14:03;28.92;;;8.95;;
59486;SDS011;45298;54.918;73.504;2022-11-20T03:16:33;37.75;;;8.95;;
59486;SDS011;45298;54.918;73.504;2022-11-20T03:19:02;29.23;;;9.15;;
59486;SDS011;45298;54.918;73.504;2022-11-20T03:21:35;24.80;;;7.80;;
59486;SDS011;45298;54.918;73.504;2022-11-20T03:24:04;21.92;;;6.80;;
59486;SDS011;45298;54.918;73.504;2022-11-20T03:26:33;30.40;;;8.75;;
59486;SDS011;45298;54.918;73.504;2022-11-20T03:29:02;23.67;;;8.10;;
59486;SDS011;45298;54.918;73.504;2022-11-20T03:31:36;22.38;;;6.35;;
59486;SDS011;45298;54.918;73.504;2022-11-20T03:34:10;21.73;;;8.13;;
59486;SDS011;45298;54.918;73.504;2022-11-20T03:36:40;19.75;;;6.35;;
59486;SDS011;45298;54.918;73.504;2022-11-20T03:39:10;28.65;;;6.50;;
59486;SDS011;45298;54.918;73.504;2022-11-20T03:41:40;22.40;;;7.97;;
59486;SDS011;45298;54.918;73.504;2022-11-20T03:44:10;30.27;;;7.40;;
59486;SDS011;45298;54.918;73.504;2022-11-20T03:46:42;22.92;;;7.05;;
59486;SDS011;45298;54.918;73.504;2022-11-20T03:49:11;24.73;;;7.30;;
59486;SDS011;45298;54.918;73.504;2022-11-20T03:51:40;24.42;;;7.18;;
59486;SDS011;45298;54.918;73.504;2022-11-20T03:54:08;14.07;;;5.25;;
59486;SDS011;45298;54.918;73.504;2022-11-20T03:56:37;23.95;;;7.05;;
59486;SDS011;45298;54.918;73.504;2022-11-20T03:59:09;21.10;;;7.07;;
59486;SDS011;45298;54.918;73.504;2022-11-20T04:01:38;18.85;;;6.57;;
59486;SDS011;45298;54.918;73.504;2022-11-20T04:04:14;18.58;;;6.47;;
59486;SDS011;45298;54.918;73.504;2022-11-20T04:06:43;19.48;;;7.38;;
59486;SDS011;45298;54.918;73.504;2022-11-20T04:09:12;22.52;;;7.18;;
59486;SDS011;45298;54.918;73.504;2022-11-20T04:11:41;21.55;;;6.68;;
59486;SDS011;45298;54.918;73.504;2022-11-20T04:14:14;19.10;;;6.63;;
59486;SDS011;45298;54.918;73.504;2022-11-20T04:16:44;24.77;;;6.13;;
59486;SDS011;45298;54.918;73.504;2022-11-20T04:19:14;28.08;;;9.52;;
59486;SDS011;45298;54.918;73.504;2022-11-20T04:21:44;35.05;;;8.45;;
59486;SDS011;45298;54.918;73.504;2022-11-20T04:24:13;23.83;;;7.28;;
59486;SDS011;45298;54.918;73.504;2022-11-20T04:26:42;25.45;;;8.65;;
59486;SDS011;45298;54.918;73.504;2022-11-20T04:29:11;23.25;;;7.40;;
59486;SDS011;45298;54.918;73.504;2022-11-20T04:31:40;21.58;;;7.25;;
59486;SDS011;45298;54.918;73.504;2022-11-20T04:34:10;27.67;;;7.35;;
59486;SDS011;45298;54.918;73.504;2022-11-20T04:36:39;27.42;;;8.15;;
59486;SDS011;45298;54.918;73.504;2022-11-20T04:39:11;27.77;;;8.18;;
59486;SDS011;45298;54.918;73.504;2022-11-20T04:41:42;28.00;;;9.18;;
59486;SDS011;45298;54.918;73.504;2022-11-20T04:44:11;29.23;;;8.52;;
59486;SDS011;45298;54.918;73.504;2022-11-20T04:46:40;34.55;;;11.20;;
59486;SDS011;45298;54.918;73.504;2022-11-20T04:49:10;28.02;;;9.95;;
59486;SDS011;45298;54.918;73.504;2022-11-20T04:51:40;25.52;;;8.18;;
59486;SDS011;45298;54.918;73.504;2022-11-20T04:54:08;28.67;;;8.75;;
59486;SDS011;45298;54.918;73.504;2022-11-20T04:56:39;24.73;;;8.20;;
59486;SDS011;45298;54.918;73.504;2022-11-20T04:59:08;27.00;;;7.60;;
59486;SDS011;45298;54.918;73.504;2022-11-20T05:01:37;29.00;;;9.10;;
59486;SDS011;45298;54.918;73.504;2022-11-20T05:04:05;26.83;;;7.88;;
59486;SDS011;45298;54.918;73.504;2022-11-20T05:06:35;29.33;;;9.15;;
59486;SDS011;45298;54.918;73.504;2022-11-20T05:09:03;28.38;;;9.77;;
59486;SDS011;45298;54.918;73.504;2022-11-20T05:11:31;32.50;;;9.90;;
59486;SDS011;45298;54.918;73.504;2022-11-20T05:14:00;33.17;;;10.35;;
59486;SDS011;45298;54.918;73.504;2022-11-20T05:16:29;30.52;;;9.65;;
59486;SDS011;45298;54.918;73.504;2022-11-20T05:18:57;29.48;;;9.95;;
59486;SDS011;45298;54.918;73.504;2022-11-20T05:21:30;28.60;;;10.00;;
59486;SDS011;45298;54.918;73.504;2022-11-20T05:24:00;28.88;;;7.78;;
59486;SDS011;45298;54.918;73.504;2022-11-20T05:26:28;27.52;;;9.02;;
59486;SDS011;45298;54.918;73.504;2022-11-20T05:28:57;17.42;;;6.85;;
59486;SDS011;45298;54.918;73.504;2022-11-20T05:31:26;28.23;;;8.88;;
59486;SDS011;45298;54.918;73.504;2022-11-20T05:33:56;18.75;;;6.38;;
59486;SDS011;45298;54.918;73.504;2022-11-20T05:36:25;28.40;;;8.25;;
59486;SDS011;45298;54.918;73.504;2022-11-20T05:38:54;26.13;;;9.27;;
59486;SDS011;45298;54.918;73.504;2022-11-20T05:41:28;26.90;;;8.40;;
59486;SDS011;45298;54.918;73.504;2022-11-20T05:43:57;29.10;;;8.45;;
59486;SDS011;45298;54.918;73.504;2022-11-20T05:46:27;25.88;;;7.15;;
59486;SDS011;45298;54.918;73.504;2022-11-20T05:48:56;25.65;;;8.15;;
59486;SDS011;45298;54.918;73.504;2022-11-20T05:51:26;21.63;;;7.82;;
59486;SDS011;45298;54.918;73.504;2022-11-20T05:53:56;19.15;;;7.35;;
59486;SDS011;45298;54.918;73.504;2022-11-20T05:56:26;20.50;;;5.78;;
59486;SDS011;45298;54.918;73.504;2022-11-20T05:58:55;18.63;;;6.00;;
59486;SDS011;45298;54.918;73.504;2022-11-20T06:01:25;13.32;;;5.32;;
59486;SDS011;45298;54.918;73.504;2022-11-20T06:03:54;13.15;;;4.32;;
59486;SDS011;45298;54.918;73.504;2022-11-20T06:06:23;15.43;;;5.95;;
59486;SDS011;45298;54.918;73.504;2022-11-20T06:08:54;24.60;;;6.20;;
59486;SDS011;45298;54.918;73.504;2022-11-20T06:11:23;18.88;;;6.57;;
59486;SDS011;45298;54.918;73.504;2022-11-20T06:13:52;19.33;;;5.35;;
59486;SDS011;45298;54.918;73.504;2022-11-20T06:16:21;17.45;;;5.47;;
59486;SDS011;45298;54.918;73.504;2022-11-20T06:18:51;16.80;;;5.65;;
59486;SDS011;45298;54.918;73.504;2022-11-20T06:21:20;19.33;;;5.80;;
59486;SDS011;45298;54.918;73.504;2022-11-20T06:23:51;16.88;;;5.30;;
59486;SDS011;45298;54.918;73.504;2022-11-20T06:26:24;17.95;;;5.53;;
59486;SDS011;45298;54.918;73.504;2022-11-20T06:28:54;15.32;;;5.22;;
59486;SDS011;45298;54.918;73.504;2022-11-20T06:31:27;15.70;;;4.80;;
59486;SDS011;45298;54.918;73.504;2022-11-20T06:33:56;40.75;;;10.80;;
59486;SDS011;45298;54.918;73.504;2022-11-20T06:36:25;22.17;;;5.10;;
59486;SDS011;45298;54.918;73.504;2022-11-20T06:38:54;12.02;;;4.32;;
59486;SDS011;45298;54.918;73.504;2022-11-20T06:41:23;9.57;;;2.88;;
59486;SDS011;45298;54.918;73.504;2022-11-20T06:43:53;14.10;;;4.32;;
59486;SDS011;45298;54.918;73.504;2022-11-20T06:46:21;11.10;;;4.00;;
59486;SDS011;45298;54.918;73.504;2022-11-20T06:48:50;9.20;;;2.78;;
59486;SDS011;45298;54.918;73.504;2022-11-20T06:51:19;7.25;;;3.33;;
59486;SDS011;45298;54.918;73.504;2022-11-20T06:53:49;12.20;;;3.80;;
59486;SDS011;45298;54.918;73.504;2022-11-20T06:56:17;10.07;;;3.55;;
59486;SDS011;45298;54.918;73.504;2022-11-20T06:58:46;9.95;;;3.88;;
59486;SDS011;45298;54.918;73.504;2022-11-20T07:01:15;20.48;;;6.60;;
59486;SDS011;45298;54.918;73.504;2022-11-20T07:03:44;10.63;;;3.70;;
59486;SDS011;45298;54.918;73.504;2022-11-20T07:06:20;23.38;;;6.65;;
59486;SDS011;45298;54.918;73.504;2022-11-20T07:08:50;7.60;;;3.33;;
59486;SDS011;45298;54.918;73.504;2022-11-20T07:11:20;11.25;;;3.60;;
59486;SDS011;45298;54.918;73.504;2022-11-20T07:13:50;10.05;;;3.45;;
59486;SDS011;45298;54.918;73.504;2022-11-20T07:16:19;13.43;;;4.03;;
59486;SDS011;45298;54.918;73.504;2022-11-20T07:18:48;12.30;;;4.22;;
59486;SDS011;45298;54.918;73.504;2022-11-20T07:21:17;9.75;;;3.08;;
59486;SDS011;45298;54.918;73.504;2022-11-20T07:23:46;13.02;;;3.72;;
59486;SDS011;45298;54.918;73.504;2022-11-20T07:26:14;9.55;;;3.58;;
59486;SDS011;45298;54.918;73.504;2022-11-20T07:28:44;8.95;;;3.30;;
59486;SDS011;45298;54.918;73.504;2022-11-20T07:31:15;13.82;;;3.30;;
59486;SDS011;45298;54.918;73.504;2022-11-20T07:33:46;7.28;;;2.33;;
59486;SDS011;45298;54.918;73.504;2022-11-20T07:36:15;13.30;;;4.20;;
59486;SDS011;45298;54.918;73.504;2022-11-20T07:38:43;14.23;;;3.65;;
59486;SDS011;45298;54.918;73.504;2022-11-20T07:41:12;8.15;;;3.28;;
59486;SDS011;45298;54.918;73.504;2022-11-20T07:43:41;9.88;;;3.60;;
59486;SDS011;45298;54.918;73.504;2022-11-20T07:46:10;18.58;;;4.30;;
59486;SDS011;45298;54.918;73.504;2022-11-20T07:48:39;7.45;;;2.40;;
59486;SDS011;45298;54.918;73.504;2022-11-20T07:51:07;7.68;;;2.78;;
59486;SDS011;45298;54.918;73.504;2022-11-20T07:53:36;11.10;;;3.75;;
59486;SDS011;45298;54.918;73.504;2022-11-20T07:56:05;8.02;;;2.90;;
59486;SDS011;45298;54.918;73.504;2022-11-20T07:58:34;6.95;;;2.90;;
59486;SDS011;45298;54.918;73.504;2022-11-20T08:01:04;7.32;;;2.95;;
59486;SDS011;45298;54.918;73.504;2022-11-20T08:03:34;18.33;;;3.00;;
59486;SDS011;45298;54.918;73.504;2022-11-20T08:06:07;13.00;;;4.30;;
59486;SDS011;45298;54.918;73.504;2022-11-20T08:08:36;11.40;;;3.42;;
59486;SDS011;45298;54.918;73.504;2022-11-20T08:11:11;12.48;;;3.22;;
59486;SDS011;45298;54.918;73.504;2022-11-20T08:14:02;9.00;;;3.42;;
59486;SDS011;45298;54.918;73.504;2022-11-20T08:16:45;9.52;;;3.42;;
59486;SDS011;45298;54.918;73.504;2022-11-20T08:19:16;15.32;;;3.88;;
59486;SDS011;45298;54.918;73.504;2022-11-20T08:21:46;13.95;;;5.03;;
59486;SDS011;45298;54.918;73.504;2022-11-20T08:24:15;12.60;;;4.13;;
59486;SDS011;45298;54.918;73.504;2022-11-20T08:26:44;10.35;;;3.90;;
59486;SDS011;45298;54.918;73.504;2022-11-20T09:12:55;12.32;;;3.92;;
59486;SDS011;45298;54.918;73.504;2022-11-20T10:07:05;10.50;;;3.20;;
59486;SDS011;45298;54.918;73.504;2022-11-20T10:09:56;8.82;;;3.83;;
59486;SDS011;45298;54.918;73.504;2022-11-20T10:16:01;11.27;;;4.22;;
59486;SDS011;45298;54.918;73.504;2022-11-20T10:29:45;9.98;;;3.10;;
59486;SDS011;45298;54.918;73.504;2022-11-20T10:32:25;13.75;;;4.47;;
59486;SDS011;45298;54.918;73.504;2022-11-20T10:35:17;12.98;;;4.70;;
59486;SDS011;45298;54.918;73.504;2022-11-20T10:38:02;14.32;;;5.05;;
59486;SDS011;45298;54.918;73.504;2022-11-20T10:40:44;11.63;;;4.05;;
59486;SDS011;45298;54.918;73.504;2022-11-20T10:43:17;11.73;;;3.13;;
59486;SDS011;45298;54.918;73.504;2022-11-20T10:45:55;12.25;;;3.95;;
59486;SDS011;45298;54.918;73.504;2022-11-20T10:48:29;13.05;;;4.97;;
59486;SDS011;45298;54.918;73.504;2022-11-20T11:01:59;6.47;;;2.65;;
59486;SDS011;45298;54.918;73.504;2022-11-20T11:07:07;10.73;;;3.65;;
59486;SDS011;45298;54.918;73.504;2022-11-20T11:10:05;11.02;;;3.53;;
59486;SDS011;45298;54.918;73.504;2022-11-20T11:12:47;11.90;;;3.78;;
59486;SDS011;45298;54.918;73.504;2022-11-20T11:18:29;12.93;;;3.83;;
59486;SDS011;45298;54.918;73.504;2022-11-20T11:21:13;9.98;;;3.78;;
59486;SDS011;45298;54.918;73.504;2022-11-20T11:23:59;13.48;;;4.20;;
59486;SDS011;45298;54.918;73.504;2022-11-20T11:27:00;10.88;;;2.95;;
59486;SDS011;45298;54.918;73.504;2022-11-20T11:30:13;7.43;;;3.45;;
59486;SDS011;45298;54.918;73.504;2022-11-20T11:33:08;13.10;;;4.90;;
59486;SDS011;45298;54.918;73.504;2022-11-20T11:35:54;14.00;;;4.40;;
59486;SDS011;45298;54.918;73.504;2022-11-20T11:41:09;19.45;;;5.53;;
59486;SDS011;45298;54.918;73.504;2022-11-20T11:43:57;20.35;;;6.70;;
59486;SDS011;45298;54.918;73.504;2022-11-20T11:46:52;66.72;;;18.20;;
59486;SDS011;45298;54.918;73.504;2022-11-20T11:49:22;25.90;;;8.18;;
59486;SDS011;45298;54.918;73.504;2022-11-20T11:52:04;26.23;;;7.22;;
59486;SDS011;45298;54.918;73.504;2022-11-20T11:57:46;11.55;;;4.32;;
59486;SDS011;45298;54.918;73.504;2022-11-20T12:01:27;11.52;;;4.20;;
59486;SDS011;45298;54.918;73.504;2022-11-20T12:03:50;12.63;;;4.30;;
59486;SDS011;45298;54.918;73.504;2022-11-20T12:07:06;13.38;;;4.30;;
59486;SDS011;45298;54.918;73.504;2022-11-20T12:20:31;11.90;;;4.65;;
59486;SDS011;45298;54.918;73.504;2022-11-20T12:23:17;10.50;;;4.25;;
59486;SDS011;45298;54.918;73.504;2022-11-20T12:26:00;13.27;;;4.45;;
59486;SDS011;45298;54.918;73.504;2022-11-20T12:46:13;15.13;;;5.30;;
59486;SDS011;45298;54.918;73.504;2022-11-20T12:48:51;15.63;;;5.28;;
59486;SDS011;45298;54.918;73.504;2022-11-20T12:51:52;14.20;;;5.00;;
59486;SDS011;45298;54.918;73.504;2022-11-20T12:57:21;31.13;;;10.65;;
59486;SDS011;45298;54.918;73.504;2022-11-20T13:02:45;16.67;;;5.80;;
59486;SDS011;45298;54.918;73.504;2022-11-20T13:08:45;15.73;;;5.50;;
59486;SDS011;45298;54.918;73.504;2022-11-20T13:14:00;16.27;;;5.45;;
59486;SDS011;45298;54.918;73.504;2022-11-20T13:16:50;13.00;;;4.93;;
59486;SDS011;45298;54.918;73.504;2022-11-20T13:19:32;15.13;;;5.60;;
59486;SDS011;45298;54.918;73.504;2022-11-20T13:22:02;14.85;;;4.50;;
59486;SDS011;45298;54.918;73.504;2022-11-20T13:24:31;14.30;;;5.43;;
59486;SDS011;45298;54.918;73.504;2022-11-20T13:27:05;27.02;;;6.38;;
59486;SDS011;45298;54.918;73.504;2022-11-20T13:29:35;16.33;;;7.03;;
59486;SDS011;45298;54.918;73.504;2022-11-20T13:32:18;17.55;;;7.07;;
59486;SDS011;45298;54.918;73.504;2022-11-20T13:34:55;17.75;;;6.60;;
59486;SDS011;45298;54.918;73.504;2022-11-20T13:37:36;31.45;;;10.07;;
59486;SDS011;45298;54.918;73.504;2022-11-20T13:42:45;106.85;;;30.27;;
59486;SDS011;45298;54.918;73.504;2022-11-20T13:45:40;17.40;;;6.03;;
59486;SDS011;45298;54.918;73.504;2022-11-20T13:48:22;16.63;;;5.82;;
59486;SDS011;45298;54.918;73.504;2022-11-20T13:51:01;13.13;;;4.70;;
59486;SDS011;45298;54.918;73.504;2022-11-20T13:53:37;12.70;;;4.38;;
59486;SDS011;45298;54.918;73.504;2022-11-20T14:04:22;15.98;;;5.45;;
59486;SDS011;45298;54.918;73.504;2022-11-20T14:06:57;21.92;;;6.63;;
59486;SDS011;45298;54.918;73.504;2022-11-20T14:09:31;16.65;;;5.72;;
59486;SDS011;45298;54.918;73.504;2022-11-20T14:14:33;19.35;;;6.15;;
59486;SDS011;45298;54.918;73.504;2022-11-20T14:17:09;14.23;;;5.63;;
59486;SDS011;45298;54.918;73.504;2022-11-20T14:19:48;13.77;;;4.13;;
59486;SDS011;45298;54.918;73.504;2022-11-20T14:22:23;18.83;;;6.60;;
59486;SDS011;45298;54.918;73.504;2022-11-20T14:27:41;30.27;;;9.07;;
59486;SDS011;45298;54.918;73.504;2022-11-20T14:30:20;37.78;;;11.75;;
59486;SDS011;45298;54.918;73.504;2022-11-20T14:32:53;14.52;;;6.13;;
59486;SDS011;45298;54.918;73.504;2022-11-20T14:35:28;19.00;;;6.38;;
59486;SDS011;45298;54.918;73.504;2022-11-20T14:38:00;17.58;;;7.03;;
59486;SDS011;45298;54.918;73.504;2022-11-20T14:40:34;24.35;;;8.20;;
59486;SDS011;45298;54.918;73.504;2022-11-20T14:46:13;20.17;;;6.85;;
59486;SDS011;45298;54.918;73.504;2022-11-20T14:48:48;16.92;;;6.80;;
59486;SDS011;45298;54.918;73.504;2022-11-20T14:51:23;16.88;;;6.90;;
59486;SDS011;45298;54.918;73.504;2022-11-20T14:53:54;19.15;;;6.93;;
59486;SDS011;45298;54.918;73.504;2022-11-20T14:56:24;20.20;;;7.10;;
59486;SDS011;45298;54.918;73.504;2022-11-20T14:58:56;20.35;;;6.45;;
59486;SDS011;45298;54.918;73.504;2022-11-20T15:01:27;19.43;;;6.83;;
59486;SDS011;45298;54.918;73.504;2022-11-20T15:04:15;15.98;;;6.13;;
59486;SDS011;45298;54.918;73.504;2022-11-20T15:06:51;17.52;;;6.38;;
59486;SDS011;45298;54.918;73.504;2022-11-20T15:09:22;22.77;;;6.82;;
59486;SDS011;45298;54.918;73.504;2022-11-20T15:11:53;16.23;;;6.30;;
59486;SDS011;45298;54.918;73.504;2022-11-20T15:14:30;18.98;;;7.20;;
59486;SDS011;45298;54.918;73.504;2022-11-20T15:17:00;19.58;;;7.13;;
59486;SDS011;45298;54.918;73.504;2022-11-20T15:19:29;25.50;;;8.23;;
59486;SDS011;45298;54.918;73.504;2022-11-20T15:22:07;27.63;;;7.10;;
59486;SDS011;45298;54.918;73.504;2022-11-20T15:24:44;26.27;;;7.30;;
59486;SDS011;45298;54.918;73.504;2022-11-20T15:27:13;23.02;;;7.63;;
59486;SDS011;45298;54.918;73.504;2022-11-20T15:29:42;20.77;;;7.28;;
59486;SDS011;45298;54.918;73.504;2022-11-20T15:32:11;20.08;;;8.05;;
59486;SDS011;45298;54.918;73.504;2022-11-20T15:34:40;18.40;;;6.85;;
59486;SDS011;45298;54.918;73.504;2022-11-20T15:37:09;20.88;;;7.63;;
59486;SDS011;45298;54.918;73.504;2022-11-20T15:39:38;19.90;;;7.45;;
59486;SDS011;45298;54.918;73.504;2022-11-20T15:42:07;21.40;;;7.60;;
59486;SDS011;45298;54.918;73.504;2022-11-20T15:44:38;22.45;;;7.82;;
59486;SDS011;45298;54.918;73.504;2022-11-20T15:47:11;19.55;;;7.63;;
59486;SDS011;45298;54.918;73.504;2022-11-20T15:49:49;25.67;;;8.65;;
59486;SDS011;45298;54.918;73.504;2022-11-20T15:52:28;34.85;;;12.65;;
59486;SDS011;45298;54.918;73.504;2022-11-20T15:55:10;33.55;;;11.10;;
59486;SDS011;45298;54.918;73.504;2022-11-20T15:57:51;25.23;;;9.23;;
59486;SDS011;45298;54.918;73.504;2022-11-20T16:00:29;20.27;;;7.32;;
59486;SDS011;45298;54.918;73.504;2022-11-20T16:03:08;19.55;;;6.72;;
59486;SDS011;45298;54.918;73.504;2022-11-20T16:05:46;19.10;;;7.63;;
59486;SDS011;45298;54.918;73.504;2022-11-20T16:08:23;23.83;;;7.43;;
59486;SDS011;45298;54.918;73.504;2022-11-20T16:10:59;24.55;;;7.35;;
59486;SDS011;45298;54.918;73.504;2022-11-20T16:13:39;25.70;;;7.85;;
59486;SDS011;45298;54.918;73.504;2022-11-20T16:16:36;18.38;;;5.15;;
59486;SDS011;45298;54.918;73.504;2022-11-20T16:19:10;23.40;;;7.40;;
59486;SDS011;45298;54.918;73.504;2022-11-20T16:21:43;21.50;;;6.97;;
59486;SDS011;45298;54.918;73.504;2022-11-20T16:24:13;14.15;;;4.63;;
59486;SDS011;45298;54.918;73.504;2022-11-20T16:26:44;20.02;;;6.75;;
59486;SDS011;45298;54.918;73.504;2022-11-20T16:29:13;29.38;;;8.25;;
59486;SDS011;45298;54.918;73.504;2022-11-20T16:31:42;26.83;;;8.55;;
59486;SDS011;45298;54.918;73.504;2022-11-20T16:34:11;27.33;;;8.45;;
59486;SDS011;45298;54.918;73.504;2022-11-20T16:36:40;22.80;;;7.57;;
59486;SDS011;45298;54.918;73.504;2022-11-20T16:39:10;20.77;;;6.80;;
59486;SDS011;45298;54.918;73.504;2022-11-20T16:41:45;26.17;;;8.65;;
59486;SDS011;45298;54.918;73.504;2022-11-20T16:44:14;29.02;;;7.32;;
59486;SDS011;45298;54.918;73.504;2022-11-20T16:46:46;22.77;;;7.18;;
59486;SDS011;45298;54.918;73.504;2022-11-20T16:49:15;25.05;;;7.78;;
59486;SDS011;45298;54.918;73.504;2022-11-20T16:51:44;17.50;;;6.90;;
59486;SDS011;45298;54.918;73.504;2022-11-20T16:54:13;12.70;;;5.38;;
59486;SDS011;45298;54.918;73.504;2022-11-20T16:56:47;26.85;;;7.75;;
59486;SDS011;45298;54.918;73.504;2022-11-20T16:59:19;24.42;;;7.45;;
59486;SDS011;45298;54.918;73.504;2022-11-20T17:01:50;22.50;;;6.75;;
59486;SDS011;45298;54.918;73.504;2022-11-20T17:04:20;20.55;;;6.60;;
59486;SDS011;45298;54.918;73.504;2022-11-20T17:06:49;16.10;;;5.75;;
59486;SDS011;45298;54.918;73.504;2022-11-20T17:09:18;17.15;;;5.93;;
59486;SDS011;45298;54.918;73.504;2022-11-20T17:11:47;19.92;;;6.43;;
59486;SDS011;45298;54.918;73.504;2022-11-20T17:14:16;14.85;;;6.00;;
59486;SDS011;45298;54.918;73.504;2022-11-20T17:16:45;19.15;;;5.82;;
59486;SDS011;45298;54.918;73.504;2022-11-20T17:19:14;22.70;;;7.65;;
59486;SDS011;45298;54.918;73.504;2022-11-20T17:21:43;16.80;;;6.25;;
59486;SDS011;45298;54.918;73.504;2022-11-20T17:24:13;18.20;;;7.38;;
59486;SDS011;45298;54.918;73.504;2022-11-20T17:26:43;19.98;;;5.97;;
59486;SDS011;45298;54.918;73.504;2022-11-20T17:29:14;24.50;;;7.10;;
59486;SDS011;45298;54.918;73.504;2022-11-20T17:31:45;20.15;;;6.47;;
59486;SDS011;45298;54.918;73.504;2022-11-20T17:34:15;21.15;;;7.13;;
59486;SDS011;45298;54.918;73.504;2022-11-20T17:36:45;25.42;;;7.90;;
59486;SDS011;45298;54.918;73.504;2022-11-20T17:39:14;28.65;;;8.82;;
59486;SDS011;45298;54.918;73.504;2022-11-20T17:41:44;19.67;;;6.40;;
59486;SDS011;45298;54.918;73.504;2022-11-20T17:44:33;22.40;;;7.80;;
59486;SDS011;45298;54.918;73.504;2022-11-20T17:47:03;27.13;;;6.75;;
59486;SDS011;45298;54.918;73.504;2022-11-20T17:49:34;22.88;;;7.50;;
59486;SDS011;45298;54.918;73.504;2022-11-20T17:52:03;18.48;;;6.93;;
59486;SDS011;45298;54.918;73.504;2022-11-20T17:54:32;24.27;;;7.40;;
59486;SDS011;45298;54.918;73.504;2022-11-20T17:57:02;20.92;;;7.28;;
59486;SDS011;45298;54.918;73.504;2022-11-20T17:59:49;21.75;;;7.45;;
59486;SDS011;45298;54.918;73.504;2022-11-20T18:02:18;17.15;;;6.10;;
59486;SDS011;45298;54.918;73.504;2022-11-20T18:04:48;23.33;;;6.85;;
59486;SDS011;45298;54.918;73.504;2022-11-20T18:07:18;21.00;;;7.28;;
59486;SDS011;45298;54.918;73.504;2022-11-20T18:09:47;19.25;;;6.93;;
59486;SDS011;45298;54.918;73.504;2022-11-20T18:12:16;13.65;;;5.47;;